Time;durP1;ratioP1;P1;durP2;ratioP2;P2;SDS_P1;SDS_P2;PMS_P1;PMS_P2;Temp;Humidity;BMP_temperature;BMP_pressure;BME280_temperature;BME280_humidity;BME280_pressure;Samples;Min_cycle;Max_cycle;Signal;HPM_P1;HPM_P2
2023/05/24 00:01:30;;;;;;;;;;;8.10;99.90;;;;;;5064810;22;20374;-66
2023/05/24 00:03:57;;;;;;;;;;;8.00;99.90;;;;;;5062873;28;20028;-66
2023/05/24 00:06:24;;;;;;;;;;;8.00;99.90;;;;;;5052703;28;20019;-66
2023/05/24 00:08:50;;;;;;;;;;;8.00;99.90;;;;;;5054163;28;19927;-65
2023/05/24 00:11:16;;;;;;;;;;;8.00;99.90;;;;;;5041912;28;19921;-66
2023/05/24 00:13:41;;;;;;;;;;;8.00;99.90;;;;;;5040513;28;20366;-66
2023/05/24 00:16:07;;;;;;;;;;;8.00;99.90;;;;;;5041128;28;19968;-66
2023/05/24 00:18:32;;;;;;;;;;;7.90;99.90;;;;;;5053246;28;19921;-66
2023/05/24 00:20:58;;;;;;;;;;;8.00;99.90;;;;;;5050506;28;19967;-66
2023/05/24 00:23:24;;;;;;;;;;;7.90;99.90;;;;;;5049913;28;20379;-66
2023/05/24 00:25:50;;;;;;;;;;;7.90;99.90;;;;;;5058336;28;19927;-66
2023/05/24 00:28:15;;;;;;;;;;;8.00;99.90;;;;;;5066914;28;20007;-65
2023/05/24 00:30:41;;;;;;;;;;;8.00;99.90;;;;;;5034659;28;20350;-65
2023/05/24 00:33:06;;;;;;;;;;;8.10;99.90;;;;;;5049641;28;19921;-65
2023/05/24 00:35:32;;;;;;;;;;;8.10;99.90;;;;;;5033951;28;19928;-65
2023/05/24 00:37:57;;;;;;;;;;;8.10;99.90;;;;;;5037520;28;19924;-66
2023/05/24 00:40:23;;;;;;;;;;;8.10;99.90;;;;;;5041740;28;19925;-66
2023/05/24 00:42:48;;;;;;;;;;;8.10;99.90;;;;;;5034171;28;19925;-66
2023/05/24 00:45:14;;;;;;;;;;;8.10;99.90;;;;;;5030829;28;19921;-66
2023/05/24 00:47:39;;;;;;;;;;;8.10;99.90;;;;;;5043693;28;19920;-66
2023/05/24 00:50:06;;;;;;;;;;;8.10;99.90;;;;;;5037743;28;19928;-66
2023/05/24 00:52:32;;;;;;;;;;;8.10;99.90;;;;;;5033579;28;19964;-66
2023/05/24 00:54:57;;;;;;;;;;;8.20;99.90;;;;;;5031470;28;19964;-66
2023/05/24 00:57:23;;;;;;;;;;;8.30;99.90;;;;;;5046154;28;19924;-64
2023/05/24 00:59:50;;;;;;;;;;;8.30;99.90;;;;;;5045912;28;19920;-64
2023/05/24 01:02:15;;;;;;;;;;;8.30;99.90;;;;;;5046733;28;19924;-66
2023/05/24 01:04:41;;;;;;;;;;;8.30;99.90;;;;;;5049378;28;19933;-67
2023/05/24 01:07:25;;;;;;;;;;;8.30;99.90;;;;;;5034028;28;20008;-66
2023/05/24 01:10:09;;;;;;;;;;;8.30;99.90;;;;;;5033836;28;19929;-66
2023/05/24 01:12:43;;;;;;;;;;;8.30;99.90;;;;;;5033905;28;20427;-66
2023/05/24 01:15:18;;;;;;;;;;;8.30;99.90;;;;;;5040908;28;19944;-66
2023/05/24 01:18:04;;;;;;;;;;;8.30;99.90;;;;;;5034423;28;19920;-66
2023/05/24 01:20:31;;;;;;;;;;;8.20;99.90;;;;;;5031772;28;19983;-65
2023/05/24 01:23:02;;;;;;;;;;;8.20;99.90;;;;;;5041083;28;19933;-65
2023/05/24 01:25:46;;;;;;;;;;;8.20;99.90;;;;;;5060813;28;19939;-66
2023/05/24 01:28:12;;;;;;;;;;;8.20;99.90;;;;;;5037593;28;20030;-66
2023/05/24 01:30:40;;;;;;;;;;;8.10;99.90;;;;;;5040963;28;20379;-66
2023/05/24 01:33:05;;;;;;;;;;;8.10;99.90;;;;;;5035144;28;19983;-66
2023/05/24 01:35:33;;;;;;;;;;;8.10;99.90;;;;;;5031673;28;19924;-65
2023/05/24 01:37:58;;;;;;;;;;;8.10;99.90;;;;;;5051605;28;19947;-65
2023/05/24 01:40:24;;;;;;;;;;;8.00;99.90;;;;;;5034002;28;20387;-65
2023/05/24 01:43:13;;;;;;;;;;;8.00;99.90;;;;;;5030485;28;19925;-65
2023/05/24 01:45:42;;;;;;;;;;;8.00;99.90;;;;;;5038318;28;19921;-66
2023/05/24 01:48:30;;;;;;;;;;;8.00;99.90;;;;;;5041945;28;19921;-65
2023/05/24 01:50:57;;;;;;;;;;;8.00;99.90;;;;;;5039533;28;19927;-66
2023/05/24 01:53:25;;;;;;;;;;;8.00;99.90;;;;;;5047284;28;20074;-67
2023/05/24 01:55:52;;;;;;;;;;;8.00;99.90;;;;;;5047198;28;19921;-66
2023/05/24 01:58:19;;;;;;;;;;;8.00;99.90;;;;;;5051117;28;20011;-66
2023/05/24 02:00:45;;;;;;;;;;;7.90;99.90;;;;;;5043395;28;20425;-66
2023/05/24 02:03:12;;;;;;;;;;;7.90;99.90;;;;;;5045436;28;20016;-66
2023/05/24 02:05:38;;;;;;;;;;;7.80;99.90;;;;;;5031663;28;19952;-66
2023/05/24 02:08:03;;;;;;;;;;;7.80;99.90;;;;;;5032547;28;19964;-66
2023/05/24 02:10:29;;;;;;;;;;;7.70;99.90;;;;;;5037972;28;19921;-66
2023/05/24 02:12:54;;;;;;;;;;;7.70;99.90;;;;;;5040906;28;19979;-66
2023/05/24 02:15:20;;;;;;;;;;;7.70;99.90;;;;;;5051135;28;19925;-66
2023/05/24 02:17:46;;;;;;;;;;;7.70;99.90;;;;;;5048498;28;19921;-66
2023/05/24 02:20:12;;;;;;;;;;;7.70;99.90;;;;;;5050912;28;19921;-66
2023/05/24 02:22:37;;;;;;;;;;;7.70;99.90;;;;;;5047233;28;20016;-66
2023/05/24 02:25:03;;;;;;;;;;;7.70;99.90;;;;;;5040451;28;19924;-66
2023/05/24 02:27:29;;;;;;;;;;;7.70;99.90;;;;;;5044080;28;19921;-66
2023/05/24 02:29:54;;;;;;;;;;;7.70;99.90;;;;;;5043997;28;19928;-66
2023/05/24 02:32:20;;;;;;;;;;;7.70;99.90;;;;;;5053086;28;20008;-67
2023/05/24 02:34:45;;;;;;;;;;;7.70;99.90;;;;;;5047221;28;19921;-65
2023/05/24 02:37:13;;;;;;;;;;;7.70;99.90;;;;;;5042007;28;19951;-66
2023/05/24 02:39:40;;;;;;;;;;;7.60;99.90;;;;;;5036325;28;19987;-66
2023/05/24 02:42:07;;;;;;;;;;;7.60;99.90;;;;;;5031220;28;20435;-66
2023/05/24 02:44:33;;;;;;;;;;;7.60;99.90;;;;;;5038134;28;19931;-66
2023/05/24 02:46:58;;;;;;;;;;;7.50;99.90;;;;;;5035322;28;20442;-66
2023/05/24 02:49:24;;;;;;;;;;;7.60;99.90;;;;;;5031814;28;19968;-67
2023/05/24 02:51:50;;;;;;;;;;;7.60;99.90;;;;;;5044655;28;20407;-66
2023/05/24 02:54:16;;;;;;;;;;;7.60;99.90;;;;;;5039232;28;19929;-66
2023/05/24 02:56:41;;;;;;;;;;;7.60;99.90;;;;;;5051484;28;20371;-66
2023/05/24 02:59:07;;;;;;;;;;;7.70;99.90;;;;;;5045906;28;19925;-66
2023/05/24 03:01:33;;;;;;;;;;;7.70;99.90;;;;;;5047545;28;19928;-66
2023/05/24 03:03:58;;;;;;;;;;;7.70;99.90;;;;;;5041276;28;20399;-66
2023/05/24 03:06:24;;;;;;;;;;;7.80;99.90;;;;;;5036688;28;20071;-67
2023/05/24 03:08:49;;;;;;;;;;;7.80;99.90;;;;;;5038929;28;19959;-65
2023/05/24 03:11:15;;;;;;;;;;;7.80;99.90;;;;;;5044090;28;19925;-66
2023/05/24 03:13:41;;;;;;;;;;;7.80;99.90;;;;;;5055329;28;19983;-66
2023/05/24 03:16:06;;;;;;;;;;;7.80;99.90;;;;;;5040545;28;20401;-66
2023/05/24 03:18:32;;;;;;;;;;;7.80;99.90;;;;;;5052878;28;19928;-66
2023/05/24 03:20:57;;;;;;;;;;;7.80;99.90;;;;;;5039109;28;19921;-67
2023/05/24 03:23:23;;;;;;;;;;;7.80;99.90;;;;;;5031757;28;19932;-66
2023/05/24 03:25:48;;;;;;;;;;;7.70;99.90;;;;;;5054346;28;20307;-65
2023/05/24 03:28:14;;;;;;;;;;;7.70;99.90;;;;;;5046272;28;19925;-65
2023/05/24 03:30:40;;;;;;;;;;;7.70;99.90;;;;;;5055040;28;20383;-65
2023/05/24 03:33:05;;;;;;;;;;;7.70;99.90;;;;;;5038435;28;19929;-65
2023/05/24 03:35:31;;;;;;;;;;;7.70;99.90;;;;;;5038156;28;19928;-65
2023/05/24 03:37:56;;;;;;;;;;;7.70;99.90;;;;;;5048120;28;20378;-66
2023/05/24 03:40:22;;;;;;;;;;;7.70;99.90;;;;;;5053022;28;19921;-67
2023/05/24 03:42:47;;;;;;;;;;;7.70;99.90;;;;;;5041736;28;20367;-66
2023/05/24 03:45:12;;;;;;;;;;;7.70;99.90;;;;;;5034945;28;19929;-66
2023/05/24 03:47:38;;;;;;;;;;;7.80;99.90;;;;;;5052145;28;20382;-66
2023/05/24 03:50:04;;;;;;;;;;;7.80;99.90;;;;;;5042363;28;19975;-67
2023/05/24 03:52:29;;;;;;;;;;;7.70;99.90;;;;;;5044849;28;20299;-67
2023/05/24 03:54:55;;;;;;;;;;;7.80;99.90;;;;;;5049473;28;20027;-66
2023/05/24 03:57:20;;;;;;;;;;;7.80;99.90;;;;;;5041843;28;19925;-67
2023/05/24 03:59:46;;;;;;;;;;;7.80;99.90;;;;;;5039098;28;20011;-67
2023/05/24 04:02:11;;;;;;;;;;;7.80;99.90;;;;;;5036152;28;19921;-67
2023/05/24 04:04:37;;;;;;;;;;;7.90;99.90;;;;;;5034788;28;19968;-66
2023/05/24 04:07:02;;;;;;;;;;;7.90;99.90;;;;;;5044812;28;20011;-67
2023/05/24 04:09:28;;;;;;;;;;;8.00;99.90;;;;;;5037010;28;19921;-66
2023/05/24 04:11:53;;;;;;;;;;;8.00;99.90;;;;;;5053577;28;19925;-66
2023/05/24 04:14:19;;;;;;;;;;;8.10;99.90;;;;;;5044859;28;19928;-65
2023/05/24 04:16:45;;;;;;;;;;;8.10;99.90;;;;;;5041238;28;19925;-65
2023/05/24 04:19:11;;;;;;;;;;;8.10;99.90;;;;;;5045619;28;19987;-66
2023/05/24 04:21:36;;;;;;;;;;;8.10;99.90;;;;;;5054271;28;19968;-66
2023/05/24 04:24:03;;;;;;;;;;;8.10;99.90;;;;;;5037739;28;20403;-67
2023/05/24 04:26:29;;;;;;;;;;;8.20;99.90;;;;;;5054906;28;20441;-67
2023/05/24 04:28:54;;;;;;;;;;;8.20;99.90;;;;;;5065753;28;20032;-67
2023/05/24 04:31:20;;;;;;;;;;;8.20;99.90;;;;;;5032356;28;19921;-67
2023/05/24 04:33:46;;;;;;;;;;;8.30;99.90;;;;;;5036039;28;19929;-67
2023/05/24 04:36:12;;;;;;;;;;;8.30;99.90;;;;;;5032590;28;20299;-67
2023/05/24 04:38:38;;;;;;;;;;;8.30;99.90;;;;;;5051080;28;19928;-66
2023/05/24 04:41:04;;;;;;;;;;;8.40;99.90;;;;;;5037803;28;20005;-67
2023/05/24 04:43:30;;;;;;;;;;;8.40;99.90;;;;;;5044650;28;19939;-66
2023/05/24 04:45:55;;;;;;;;;;;8.50;99.90;;;;;;5044707;28;19925;-67
2023/05/24 04:48:23;;;;;;;;;;;8.50;99.90;;;;;;5049447;28;19921;-67
2023/05/24 04:50:55;;;;;;;;;;;8.60;99.90;;;;;;5041036;28;19924;-67
2023/05/24 04:53:22;;;;;;;;;;;8.70;99.90;;;;;;5037429;28;19982;-67
2023/05/24 04:55:48;;;;;;;;;;;8.80;99.90;;;;;;5036081;28;19931;-67
2023/05/24 04:58:13;;;;;;;;;;;8.80;99.90;;;;;;5035473;28;19960;-67
2023/05/24 05:00:39;;;;;;;;;;;8.90;99.90;;;;;;5044747;28;20440;-67
2023/05/24 05:03:05;;;;;;;;;;;9.00;99.90;;;;;;5053480;28;19925;-67
2023/05/24 05:05:31;;;;;;;;;;;9.10;99.90;;;;;;5044295;28;19924;-67
2023/05/24 05:07:56;;;;;;;;;;;9.20;99.90;;;;;;5044042;28;19974;-67
2023/05/24 05:10:22;;;;;;;;;;;9.20;99.90;;;;;;5044980;28;19924;-67
2023/05/24 05:12:48;;;;;;;;;;;9.30;99.90;;;;;;5043781;28;20321;-67
2023/05/24 05:15:13;;;;;;;;;;;9.30;99.90;;;;;;5047686;28;19962;-67
2023/05/24 05:17:39;;;;;;;;;;;9.40;99.90;;;;;;5045388;28;20028;-67
2023/05/24 05:20:05;;;;;;;;;;;9.50;99.90;;;;;;5052485;28;19974;-67
2023/05/24 05:22:31;;;;;;;;;;;9.50;99.90;;;;;;5032263;28;19928;-67
2023/05/24 05:24:56;;;;;;;;;;;9.60;99.90;;;;;;5045300;28;19929;-67
2023/05/24 05:27:22;;;;;;;;;;;9.70;99.90;;;;;;5045724;28;19921;-67
2023/05/24 05:29:47;;;;;;;;;;;9.80;99.90;;;;;;5042765;28;19991;-67
2023/05/24 05:32:14;;;;;;;;;;;9.90;99.90;;;;;;5043014;28;19921;-67
2023/05/24 05:34:39;;;;;;;;;;;10.00;99.90;;;;;;5044068;28;19921;-67
2023/05/24 05:37:05;;;;;;;;;;;10.00;99.90;;;;;;5043177;28;19952;-66
2023/05/24 05:39:30;;;;;;;;;;;10.10;99.90;;;;;;5041637;28;19924;-67
2023/05/24 05:41:56;;;;;;;;;;;10.20;99.90;;;;;;5040295;28;20011;-66
2023/05/24 05:44:21;;;;;;;;;;;10.30;99.90;;;;;;5041872;28;19937;-68
2023/05/24 05:46:47;;;;;;;;;;;10.30;99.90;;;;;;5036388;28;19943;-67
2023/05/24 05:49:14;;;;;;;;;;;10.40;99.90;;;;;;5024304;28;19921;-67
2023/05/24 05:51:40;;;;;;;;;;;10.50;99.90;;;;;;5031966;28;19921;-67
2023/05/24 05:54:07;;;;;;;;;;;10.60;99.90;;;;;;5026304;28;19936;-66
2023/05/24 05:56:34;;;;;;;;;;;10.80;99.90;;;;;;5024634;28;20020;-66
2023/05/24 05:59:00;;;;;;;;;;;10.90;99.90;;;;;;5027589;28;19932;-67
2023/05/24 06:01:25;;;;;;;;;;;10.90;99.90;;;;;;5027131;28;20173;-66
2023/05/24 06:03:51;;;;;;;;;;;10.90;99.90;;;;;;5024423;28;20338;-66
2023/05/24 06:06:17;;;;;;;;;;;10.90;99.90;;;;;;5025707;28;19925;-66
2023/05/24 06:08:42;;;;;;;;;;;11.00;99.90;;;;;;5028405;28;19928;-66
2023/05/24 06:11:08;;;;;;;;;;;10.90;99.90;;;;;;5068113;23;19929;-67
2023/05/24 06:13:33;;;;;;;;;;;11.00;99.90;;;;;;5028403;28;19959;-66
2023/05/24 06:16:00;;;;;;;;;;;11.00;99.90;;;;;;5032922;28;19921;-67
2023/05/24 06:18:26;;;;;;;;;;;11.00;99.90;;;;;;5030139;28;19975;-66
2023/05/24 06:20:52;;;;;;;;;;;11.10;99.90;;;;;;5030439;28;19930;-67
2023/05/24 06:23:17;;;;;;;;;;;11.30;99.90;;;;;;5021333;28;19931;-67
2023/05/24 06:25:42;;;;;;;;;;;11.40;99.90;;;;;;5029449;28;19921;-67
2023/05/24 06:28:08;;;;;;;;;;;11.70;99.90;;;;;;5030075;28;20436;-67
2023/05/24 06:30:34;;;;;;;;;;;11.90;99.90;;;;;;5035179;28;19933;-67
2023/05/24 06:33:00;;;;;;;;;;;11.90;99.90;;;;;;5035540;28;20015;-67
2023/05/24 06:35:25;;;;;;;;;;;12.10;99.90;;;;;;5024076;28;19991;-66
2023/05/24 06:37:51;;;;;;;;;;;12.20;99.90;;;;;;5029694;28;19948;-67
2023/05/24 06:40:16;;;;;;;;;;;12.30;99.90;;;;;;5023251;28;19925;-67
2023/05/24 06:42:42;;;;;;;;;;;12.20;99.90;;;;;;5050257;28;20325;-67
2023/05/24 06:45:08;;;;;;;;;;;12.20;99.90;;;;;;5018674;28;20012;-67
2023/05/24 06:47:33;;;;;;;;;;;12.20;99.90;;;;;;5022579;28;19921;-67
2023/05/24 06:49:59;;;;;;;;;;;12.30;99.90;;;;;;5031865;28;20011;-67
2023/05/24 06:52:25;;;;;;;;;;;12.20;99.90;;;;;;5025199;28;20659;-67
2023/05/24 06:54:51;;;;;;;;;;;12.20;99.90;;;;;;5025440;28;19921;-67
2023/05/24 06:57:16;;;;;;;;;;;12.20;99.90;;;;;;5031579;28;20476;-66
2023/05/24 06:59:42;;;;;;;;;;;12.20;99.90;;;;;;5031727;28;20015;-67
2023/05/24 07:02:07;;;;;;;;;;;12.10;99.90;;;;;;5022078;28;20344;-66
2023/05/24 07:04:33;;;;;;;;;;;12.10;99.90;;;;;;5046468;28;19921;-67
2023/05/24 07:06:58;;;;;;;;;;;12.20;99.90;;;;;;5031380;28;20003;-66
2023/05/24 07:09:24;;;;;;;;;;;12.20;99.90;;;;;;5024828;28;19921;-67
2023/05/24 07:11:49;;;;;;;;;;;12.30;99.90;;;;;;5020680;28;19921;-67
2023/05/24 07:14:15;;;;;;;;;;;12.30;99.90;;;;;;5021391;28;19967;-67
2023/05/24 07:16:41;;;;;;;;;;;12.30;99.90;;;;;;5010673;28;20330;-67
2023/05/24 07:19:06;;;;;;;;;;;12.30;99.90;;;;;;5055000;28;19921;-66
2023/05/24 07:21:32;;;;;;;;;;;12.40;99.90;;;;;;5022745;28;19929;-67
2023/05/24 07:23:57;;;;;;;;;;;12.50;99.90;;;;;;5029088;28;19921;-67
2023/05/24 07:26:23;;;;;;;;;;;12.60;99.90;;;;;;5018898;28;19960;-67
2023/05/24 07:28:48;;;;;;;;;;;12.60;99.90;;;;;;5025372;28;19921;-67
2023/05/24 07:31:15;;;;;;;;;;;12.60;99.90;;;;;;5015007;28;19948;-67
2023/05/24 07:33:40;;;;;;;;;;;12.60;99.90;;;;;;5028997;28;20035;-67
2023/05/24 07:36:06;;;;;;;;;;;12.90;99.90;;;;;;5031075;28;20443;-67
2023/05/24 07:38:33;;;;;;;;;;;12.90;99.90;;;;;;5031566;28;19928;-67
2023/05/24 07:41:05;;;;;;;;;;;13.10;99.90;;;;;;5022140;28;20334;-67
2023/05/24 07:43:30;;;;;;;;;;;13.20;99.90;;;;;;5018924;28;20391;-67
2023/05/24 07:45:56;;;;;;;;;;;13.50;99.90;;;;;;5030517;28;20012;-67
2023/05/24 07:48:22;;;;;;;;;;;13.40;99.90;;;;;;5033629;28;20326;-67
2023/05/24 07:50:48;;;;;;;;;;;13.30;99.90;;;;;;5034595;28;19925;-67
2023/05/24 07:53:16;;;;;;;;;;;13.30;99.90;;;;;;5017298;28;19921;-67
2023/05/24 07:55:43;;;;;;;;;;;13.30;99.90;;;;;;5034486;28;19925;-67
2023/05/24 07:58:09;;;;;;;;;;;13.30;99.90;;;;;;5034377;28;20003;-67
2023/05/24 08:00:34;;;;;;;;;;;13.30;99.90;;;;;;5020664;28;19921;-67
2023/05/24 08:03:00;;;;;;;;;;;13.20;99.90;;;;;;5037906;28;19921;-67
2023/05/24 08:05:26;;;;;;;;;;;13.30;99.90;;;;;;5016286;28;19925;-67
2023/05/24 08:07:52;;;;;;;;;;;13.40;99.90;;;;;;5011613;28;19922;-67
2023/05/24 08:10:17;;;;;;;;;;;13.40;99.90;;;;;;5026516;28;20000;-67
2023/05/24 08:12:43;;;;;;;;;;;13.40;99.90;;;;;;5026377;28;19925;-67
2023/05/24 08:15:09;;;;;;;;;;;13.40;99.90;;;;;;5011993;28;20408;-67
2023/05/24 08:17:35;;;;;;;;;;;13.40;99.90;;;;;;5012640;28;19928;-67
2023/05/24 08:20:05;;;;;;;;;;;13.40;99.90;;;;;;5007036;28;19926;-67
2023/05/24 08:22:30;;;;;;;;;;;13.70;99.90;;;;;;5008284;28;20018;-67
2023/05/24 08:24:56;;;;;;;;;;;14.10;99.90;;;;;;5014459;28;19925;-67
2023/05/24 08:27:22;;;;;;;;;;;14.20;99.90;;;;;;5018955;28;19948;-67
2023/05/24 08:29:48;;;;;;;;;;;14.20;99.90;;;;;;5013033;28;20062;-67
2023/05/24 08:32:13;;;;;;;;;;;14.40;99.90;;;;;;5014456;28;20406;-66
2023/05/24 08:34:39;;;;;;;;;;;14.60;99.90;;;;;;5017369;28;20851;-67
2023/05/24 08:37:04;;;;;;;;;;;14.60;99.90;;;;;;5030652;28;19921;-67
2023/05/24 08:39:30;;;;;;;;;;;14.80;99.90;;;;;;5032726;28;19928;-67
2023/05/24 08:41:57;;;;;;;;;;;14.70;99.90;;;;;;5016738;28;19926;-67
2023/05/24 08:44:23;;;;;;;;;;;14.60;99.90;;;;;;5023585;28;20411;-67
2023/05/24 08:46:49;;;;;;;;;;;14.50;99.90;;;;;;5026603;28;19925;-67
2023/05/24 08:49:15;;;;;;;;;;;14.30;99.90;;;;;;5019314;28;19933;-67
2023/05/24 08:51:41;;;;;;;;;;;14.20;99.90;;;;;;5021517;28;19988;-67
2023/05/24 08:54:09;;;;;;;;;;;14.20;99.90;;;;;;5025686;28;20010;-68
2023/05/24 08:56:35;;;;;;;;;;;14.50;99.90;;;;;;5032431;28;19991;-67
2023/05/24 08:59:00;;;;;;;;;;;14.50;99.90;;;;;;5020248;28;20020;-67
2023/05/24 09:01:26;;;;;;;;;;;14.40;99.90;;;;;;5031228;28;20044;-67
2023/05/24 09:03:52;;;;;;;;;;;14.40;99.90;;;;;;5034136;28;19921;-68
2023/05/24 09:06:18;;;;;;;;;;;14.40;99.90;;;;;;5005559;28;20043;-67
2023/05/24 09:08:48;;;;;;;;;;;14.50;99.90;;;;;;5027360;28;20936;-67
2023/05/24 09:11:15;;;;;;;;;;;14.60;99.90;;;;;;5029407;28;19929;-67
2023/05/24 09:13:41;;;;;;;;;;;14.60;99.90;;;;;;5032011;28;20445;-67
2023/05/24 09:16:07;;;;;;;;;;;14.60;99.90;;;;;;5033179;28;19921;-67
2023/05/24 09:18:32;;;;;;;;;;;14.50;99.90;;;;;;5026999;28;20244;-67
2023/05/24 09:20:58;;;;;;;;;;;14.50;99.90;;;;;;5033074;28;19928;-67
2023/05/24 09:23:25;;;;;;;;;;;14.60;99.90;;;;;;5019392;28;19928;-67
2023/05/24 09:25:51;;;;;;;;;;;14.70;99.90;;;;;;5032790;28;20371;-67
2023/05/24 09:28:17;;;;;;;;;;;14.80;99.90;;;;;;5031517;28;19928;-67
2023/05/24 09:30:43;;;;;;;;;;;14.90;99.90;;;;;;5027746;28;20016;-67
2023/05/24 09:33:09;;;;;;;;;;;15.00;99.90;;;;;;5032695;28;20028;-67
2023/05/24 09:35:35;;;;;;;;;;;15.10;99.90;;;;;;5031551;28;19921;-67
2023/05/24 09:38:02;;;;;;;;;;;15.10;99.90;;;;;;5033127;28;19927;-67
2023/05/24 09:40:28;;;;;;;;;;;15.30;99.50;;;;;;5013874;28;19922;-67
2023/05/24 09:43:08;;;;;;;;;;;15.10;98.90;;;;;;5026985;28;19929;-67
2023/05/24 09:45:41;;;;;;;;;;;15.10;98.00;;;;;;5032853;28;19964;-68
2023/05/24 09:48:11;;;;;;;;;;;15.10;99.70;;;;;;5026834;28;20295;-67
2023/05/24 09:50:36;;;;;;;;;;;15.00;98.10;;;;;;5024104;28;19921;-68
2023/05/24 09:53:02;;;;;;;;;;;14.90;99.50;;;;;;5032753;28;20351;-68
2023/05/24 09:55:28;;;;;;;;;;;14.50;99.10;;;;;;5028032;28;20011;-68
2023/05/24 09:58:04;;;;;;;;;;;14.40;99.80;;;;;;5031138;28;19924;-68
2023/05/24 10:00:34;;;;;;;;;;;14.50;99.90;;;;;;5032338;28;19948;-67
2023/05/24 10:03:01;;;;;;;;;;;14.60;99.90;;;;;;5032610;28;19933;-68
2023/05/24 10:05:27;;;;;;;;;;;14.70;99.90;;;;;;5028427;28;19921;-67
2023/05/24 10:07:54;;;;;;;;;;;14.80;99.90;;;;;;5031504;28;20020;-68
2023/05/24 10:10:19;;;;;;;;;;;14.90;99.90;;;;;;5031486;28;20301;-68
2023/05/24 10:12:45;;;;;;;;;;;15.00;99.90;;;;;;5028225;28;20422;-68
2023/05/24 10:15:11;;;;;;;;;;;15.00;99.70;;;;;;5027425;28;20008;-68
2023/05/24 10:17:36;;;;;;;;;;;15.10;98.80;;;;;;5031765;28;20004;-68
2023/05/24 10:20:04;;;;;;;;;;;15.10;97.60;;;;;;5028502;28;19925;-68
2023/05/24 10:22:30;;;;;;;;;;;15.30;98.10;;;;;;5020455;28;19925;-68
2023/05/24 10:24:58;;;;;;;;;;;15.60;99.50;;;;;;5029664;28;20016;-68
2023/05/24 10:27:29;;;;;;;;;;;15.70;98.30;;;;;;5032092;28;19967;-67
2023/05/24 10:30:11;;;;;;;;;;;15.70;98.10;;;;;;5020467;28;19964;-68
2023/05/24 10:32:37;;;;;;;;;;;15.90;98.80;;;;;;5018130;28;19940;-67
2023/05/24 10:35:04;;;;;;;;;;;15.90;98.40;;;;;;5021799;28;19932;-67
2023/05/24 10:37:30;;;;;;;;;;;15.90;96.10;;;;;;5025769;28;19937;-68
2023/05/24 10:39:57;;;;;;;;;;;15.80;96.10;;;;;;5030429;28;20466;-68
2023/05/24 10:42:22;;;;;;;;;;;15.80;96.80;;;;;;5009717;28;20024;-68
2023/05/24 10:44:48;;;;;;;;;;;16.00;99.20;;;;;;5017379;28;19922;-67
2023/05/24 10:47:15;;;;;;;;;;;16.10;98.10;;;;;;5015346;28;20012;-67
2023/05/24 10:49:51;;;;;;;;;;;16.30;96.70;;;;;;5018589;28;19948;-68
2023/05/24 10:52:17;;;;;;;;;;;16.30;95.60;;;;;;5012440;28;19928;-68
2023/05/24 10:55:02;;;;;;;;;;;16.20;96.50;;;;;;5011214;28;19925;-69
2023/05/24 10:57:29;;;;;;;;;;;16.10;95.30;;;;;;5015119;28;20375;-68
2023/05/24 10:59:55;;;;;;;;;;;15.80;96.70;;;;;;5012752;28;19929;-68
2023/05/24 11:02:21;;;;;;;;;;;15.80;97.90;;;;;;5008690;28;20063;-68
2023/05/24 11:04:48;;;;;;;;;;;15.70;96.60;;;;;;5013556;28;19925;-68
2023/05/24 11:07:14;;;;;;;;;;;15.60;94.70;;;;;;5010978;28;19979;-68
2023/05/24 11:09:45;;;;;;;;;;;15.60;95.90;;;;;;5011794;28;20435;-68
2023/05/24 11:12:17;;;;;;;;;;;15.60;96.30;;;;;;5012569;28;19925;-68
2023/05/24 11:14:50;;;;;;;;;;;15.80;96.10;;;;;;5018058;28;19925;-67
2023/05/24 11:17:15;;;;;;;;;;;15.90;94.70;;;;;;5013989;28;19975;-68
2023/05/24 11:20:00;;;;;;;;;;;16.00;94.20;;;;;;5010049;28;20032;-68
2023/05/24 11:22:26;;;;;;;;;;;16.10;95.40;;;;;;5020254;28;19972;-68
2023/05/24 11:24:51;;;;;;;;;;;16.20;95.00;;;;;;5027504;28;19963;-68
2023/05/24 11:27:17;;;;;;;;;;;16.10;95.40;;;;;;5018641;28;19933;-68
2023/05/24 11:29:43;;;;;;;;;;;16.00;96.70;;;;;;5027001;28;19925;-67
2023/05/24 11:32:09;;;;;;;;;;;15.90;96.50;;;;;;5027478;28;19921;-67
2023/05/24 11:34:35;;;;;;;;;;;15.70;96.50;;;;;;5027734;28;19935;-67
2023/05/24 11:37:01;;;;;;;;;;;15.90;97.70;;;;;;5026979;28;19920;-67
2023/05/24 11:39:30;;;;;;;;;;;16.00;97.30;;;;;;5026164;28;19925;-68
2023/05/24 11:41:56;;;;;;;;;;;16.10;97.90;;;;;;5026129;28;19926;-68
2023/05/24 11:44:21;;;;;;;;;;;16.20;96.70;;;;;;5024390;28;19922;-67
2023/05/24 11:46:47;;;;;;;;;;;16.30;96.10;;;;;;5012936;28;19925;-68
2023/05/24 11:49:13;;;;;;;;;;;16.30;96.40;;;;;;5023512;28;19925;-67
2023/05/24 11:51:39;;;;;;;;;;;16.50;97.60;;;;;;5027632;28;20000;-68
2023/05/24 11:54:05;;;;;;;;;;;16.70;96.70;;;;;;5020391;28;20347;-68
2023/05/24 11:56:30;;;;;;;;;;;16.60;95.00;;;;;;5042073;28;19928;-68
2023/05/24 11:59:07;;;;;;;;;;;16.40;95.90;;;;;;5034730;28;19921;-68
2023/05/24 12:01:33;;;;;;;;;;;16.40;95.00;;;;;;5029138;28;19933;-68
2023/05/24 12:03:59;;;;;;;;;;;16.60;96.30;;;;;;5020864;28;19925;-68
2023/05/24 12:06:32;;;;;;;;;;;17.10;96.10;;;;;;5028969;28;19932;-68
2023/05/24 12:08:58;;;;;;;;;;;17.80;98.80;;;;;;5034996;28;19925;-67
2023/05/24 12:11:24;;;;;;;;;;;17.40;94.60;;;;;;5022316;28;19927;-68
2023/05/24 12:13:49;;;;;;;;;;;16.80;94.80;;;;;;5027424;28;19925;-67
2023/05/24 12:16:15;;;;;;;;;;;16.50;95.40;;;;;;5006522;28;19928;-67
2023/05/24 12:18:40;;;;;;;;;;;16.40;95.80;;;;;;5029993;28;19961;-67
2023/05/24 12:21:10;;;;;;;;;;;16.30;95.70;;;;;;5033792;28;19952;-66
2023/05/24 12:23:36;;;;;;;;;;;16.30;95.60;;;;;;5034528;28;19966;-68
2023/05/24 12:26:02;;;;;;;;;;;16.30;96.40;;;;;;5025548;28;19920;-68
2023/05/24 12:28:37;;;;;;;;;;;16.40;96.10;;;;;;5032859;28;19972;-67
2023/05/24 12:31:04;;;;;;;;;;;16.40;95.20;;;;;;5030586;28;19995;-68
2023/05/24 12:33:30;;;;;;;;;;;16.60;97.10;;;;;;5029205;28;19921;-67
2023/05/24 12:35:56;;;;;;;;;;;16.70;96.10;;;;;;5021389;28;20289;-68
2023/05/24 12:38:24;;;;;;;;;;;16.70;96.30;;;;;;5031205;28;19979;-67
2023/05/24 12:40:50;;;;;;;;;;;16.60;97.40;;;;;;5034008;28;19921;-67
2023/05/24 12:43:17;;;;;;;;;;;16.40;97.10;;;;;;5018675;28;19921;-67
2023/05/24 12:45:43;;;;;;;;;;;16.40;97.50;;;;;;5026172;28;19973;-66
2023/05/24 12:48:08;;;;;;;;;;;16.30;97.60;;;;;;5029431;28;19983;-67
2023/05/24 12:50:34;;;;;;;;;;;16.10;97.40;;;;;;5029535;28;19921;-68
2023/05/24 12:52:59;;;;;;;;;;;16.00;97.40;;;;;;5026373;28;19921;-68
2023/05/24 12:55:25;;;;;;;;;;;15.90;99.30;;;;;;5033236;28;19929;-68
2023/05/24 12:57:53;;;;;;;;;;;16.00;98.90;;;;;;5032469;28;19921;-67
2023/05/24 13:00:23;;;;;;;;;;;16.00;98.90;;;;;;5013838;28;20406;-67
2023/05/24 13:02:48;;;;;;;;;;;16.00;96.60;;;;;;5024540;28;19925;-68
2023/05/24 13:05:14;;;;;;;;;;;16.00;97.60;;;;;;5032090;28;19921;-67
2023/05/24 13:07:42;;;;;;;;;;;16.10;97.60;;;;;;5028242;28;19928;-66
2023/05/24 13:10:08;;;;;;;;;;;16.40;98.10;;;;;;5019901;28;20014;-66
2023/05/24 13:12:34;;;;;;;;;;;16.40;96.90;;;;;;5055766;28;19994;-67
2023/05/24 13:15:00;;;;;;;;;;;16.50;95.50;;;;;;5033476;28;19928;-67
2023/05/24 13:17:25;;;;;;;;;;;16.60;95.60;;;;;;5024719;28;20089;-67
2023/05/24 13:19:51;;;;;;;;;;;16.50;96.60;;;;;;5024564;28;19927;-69
2023/05/24 13:22:18;;;;;;;;;;;16.30;96.50;;;;;;5027117;28;19972;-66
2023/05/24 13:24:44;;;;;;;;;;;16.40;96.60;;;;;;5026681;28;19921;-66
2023/05/24 13:27:09;;;;;;;;;;;16.40;97.30;;;;;;5032848;28;19928;-67
2023/05/24 13:29:35;;;;;;;;;;;16.40;97.80;;;;;;5032916;28;20433;-66
2023/05/24 13:32:00;;;;;;;;;;;16.40;97.80;;;;;;5022965;28;19927;-66
2023/05/24 13:34:26;;;;;;;;;;;16.60;99.90;;;;;;5020984;28;20013;-66
2023/05/24 13:36:52;;;;;;;;;;;16.60;99.20;;;;;;5032805;28;19925;-66
2023/05/24 13:39:19;;;;;;;;;;;16.60;97.50;;;;;;5031360;28;19921;-66
2023/05/24 13:41:44;;;;;;;;;;;16.70;97.70;;;;;;5020595;28;20024;-67
2023/05/24 13:44:14;;;;;;;;;;;17.00;96.80;;;;;;5027477;28;20016;-66
2023/05/24 13:46:40;;;;;;;;;;;17.10;96.40;;;;;;5032449;28;19927;-67
2023/05/24 13:49:06;;;;;;;;;;;17.70;97.60;;;;;;5024660;28;19925;-66
2023/05/24 13:51:31;;;;;;;;;;;17.90;96.40;;;;;;5017563;28;19921;-66
2023/05/24 13:53:57;;;;;;;;;;;17.80;96.00;;;;;;5028917;28;19947;-66
2023/05/24 13:56:23;;;;;;;;;;;17.90;95.30;;;;;;5023955;28;19974;-67
2023/05/24 13:58:49;;;;;;;;;;;18.00;96.50;;;;;;5031790;28;19959;-66
2023/05/24 14:01:14;;;;;;;;;;;18.40;96.10;;;;;;5027280;28;19977;-66
2023/05/24 14:03:40;;;;;;;;;;;18.70;96.20;;;;;;5022497;28;19983;-67
2023/05/24 14:06:06;;;;;;;;;;;18.30;95.10;;;;;;5027359;28;19967;-66
2023/05/24 14:08:32;;;;;;;;;;;18.00;95.20;;;;;;5030308;28;19925;-66
2023/05/24 14:10:57;;;;;;;;;;;17.90;93.70;;;;;;5031928;28;19921;-66
2023/05/24 14:13:23;;;;;;;;;;;18.10;95.50;;;;;;5029050;28;19929;-67
2023/05/24 14:15:49;;;;;;;;;;;18.70;95.80;;;;;;5017292;28;19921;-67
2023/05/24 14:18:15;;;;;;;;;;;19.10;93.50;;;;;;5027529;28;19955;-67